Time;durP1;ratioP1;P1;durP2;ratioP2;P2;SDS_P1;SDS_P2;PMS_P1;PMS_P2;Temp;Humidity;BMP_temperature;BMP_pressure;BME280_temperature;BME280_humidity;BME280_pressure;Samples;Min_cycle;Max_cycle;Signal;HPM_P1;HPM_P2
2022/07/10 00:01:47;;;;;;;12.07;8.40;;;;;;;18.37;93.21;98716.13;5013503;28;20612;-85
2022/07/10 00:04:13;;;;;;;12.37;8.07;;;;;;;18.99;93.20;98814.50;5012329;28;20268;-85
2022/07/10 00:06:41;;;;;;;10.23;7.60;;;;;;;18.52;93.83;98736.66;5013030;28;20217;-85
2022/07/10 00:09:07;;;;;;;9.10;8.10;;;;;;;19.60;94.42;98958.31;5013132;28;20186;-85
2022/07/10 00:11:32;;;;;;;9.73;8.40;;;;;;;16.94;93.79;98472.53;5012863;28;20646;-85
2022/07/10 00:13:58;;;;;;;9.53;8.07;;;;;;;17.60;93.44;98571.69;4994996;28;20202;-85
2022/07/10 00:16:24;;;;;;;9.27;8.10;;;;;;;18.74;93.91;98772.59;5012857;28;20277;-84
2022/07/10 00:18:50;;;;;;;9.33;8.00;;;;;;;19.14;94.28;98850.47;5012389;28;20162;-85
2022/07/10 00:21:16;;;;;;;8.97;7.83;;;;;;;17.45;94.64;98578.41;5013014;28;20162;-87
2022/07/10 00:23:42;;;;;;;9.97;8.20;;;;;;;18.87;95.45;98799.09;5012990;28;20194;-85
2022/07/10 00:26:07;;;;;;;9.10;8.20;;;;;;;17.41;96.96;98576.72;5012426;28;20167;-86
2022/07/10 00:28:33;;;;;;;10.53;8.00;;;;;;;17.91;95.70;98628.91;5012919;28;20162;-86
2022/07/10 00:30:58;;;;;;;8.90;8.00;;;;;;;17.58;95.03;98572.50;5012507;28;20686;-85
2022/07/10 00:33:23;;;;;;;8.10;7.30;;;;;;;19.21;95.29;98836.75;5013372;28;20171;-86
2022/07/10 00:35:49;;;;;;;10.13;8.40;;;;;;;18.40;94.42;98680.25;5013036;28;20203;-86
2022/07/10 00:38:14;;;;;;;8.63;7.50;;;;;;;19.65;95.54;98916.38;4994639;28;20177;-85
2022/07/10 00:40:40;;;;;;;9.30;7.83;;;;;;;17.73;94.26;98564.88;4994561;28;20573;-86
2022/07/10 00:43:09;;;;;;;11.20;7.57;;;;;;;19.68;94.28;98906.09;5012020;28;20173;-84
2022/07/10 00:45:34;;;;;;;9.77;7.90;;;;;;;18.81;93.90;98745.25;5012284;28;20228;-84
2022/07/10 00:48:00;;;;;;;8.87;7.27;;;;;;;18.22;94.24;98694.72;5014585;28;20615;-86
2022/07/10 00:50:26;;;;;;;9.20;7.33;;;;;;;18.93;93.59;98780.28;5018356;28;20170;-85
2022/07/10 00:52:51;;;;;;;9.67;7.67;;;;;;;17.72;92.04;98558.03;5016549;28;20597;-85
2022/07/10 00:55:17;;;;;;;9.23;7.60;;;;;;;18.60;91.26;98699.06;5016408;28;20226;-86
2022/07/10 00:57:42;;;;;;;8.80;7.90;;;;;;;19.02;90.17;98780.31;5016917;28;20174;-86
2022/07/10 01:00:11;;;;;;;9.17;7.80;;;;;;;19.49;91.17;98859.91;4998930;28;20244;-86
2022/07/10 01:02:42;;;;;;;9.07;7.83;;;;;;;19.38;89.84;98840.22;5016054;28;20638;-86
2022/07/10 01:05:07;;;;;;;8.73;7.47;;;;;;;18.88;89.98;98759.78;5016224;28;20645;-87
2022/07/10 01:07:33;;;;;;;9.57;7.80;;;;;;;19.66;89.45;98881.28;5016078;28;20246;-87
2022/07/10 01:09:59;;;;;;;8.20;6.87;;;;;;;19.67;90.11;98890.69;5016198;28;20174;-85
2022/07/10 01:12:27;;;;;;;10.93;8.10;;;;;;;16.70;89.19;98362.53;5016290;28;20202;-86
2022/07/10 01:14:53;;;;;;;10.57;7.47;;;;;;;17.51;88.98;98496.56;4999132;28;20202;-87
2022/07/10 01:17:19;;;;;;;9.40;7.97;;;;;;;19.29;88.83;98782.84;5016119;28;20186;-85
2022/07/10 01:19:45;;;;;;;9.97;8.10;;;;;;;18.38;88.02;98628.09;5016933;28;20174;-88
2022/07/10 01:22:10;;;;;;;9.77;7.87;;;;;;;19.79;88.04;98871.00;5016523;28;20179;-87
2022/07/10 01:24:36;;;;;;;9.53;7.87;;;;;;;17.65;87.13;98529.03;5017791;28;20159;-89
2022/07/10 01:27:02;;;;;;;10.33;8.37;;;;;;;19.93;87.22;98871.81;5017750;28;20195;-88
2022/07/10 01:29:29;;;;;;;11.80;8.07;;;;;;;17.08;87.54;98418.88;5020167;28;20170;-86
2022/07/10 01:31:54;;;;;;;9.87;8.57;;;;;;;18.98;87.31;98724.75;5016258;28;20163;-86
2022/07/10 01:34:20;;;;;;;11.43;8.70;;;;;;;18.09;86.70;98582.84;4998738;28;20181;-86
2022/07/10 01:36:46;;;;;;;12.30;8.47;;;;;;;19.35;85.98;98758.03;5015563;28;20282;-86
2022/07/10 01:39:11;;;;;;;10.97;9.43;;;;;;;19.17;87.08;98762.34;5015795;28;20163;-87
2022/07/10 01:41:37;;;;;;;9.70;8.70;;;;;;;18.70;87.10;98670.03;4997455;28;20162;-86
2022/07/10 01:44:02;;;;;;;9.67;8.67;;;;;;;18.47;87.36;98635.81;5015116;28;20631;-86
2022/07/10 01:46:28;;;;;;;11.97;8.77;;;;;;;17.07;87.98;98419.72;5016205;28;20161;-87
2022/07/10 01:48:54;;;;;;;10.10;9.10;;;;;;;19.51;88.83;98847.91;5028174;28;20210;-87
2022/07/10 01:51:20;;;;;;;11.67;9.07;;;;;;;16.60;88.77;98332.69;5001651;28;20170;-88
2022/07/10 01:53:45;;;;;;;10.43;8.70;;;;;;;17.26;89.40;98457.28;5016921;28;20540;-88
2022/07/10 01:56:12;;;;;;;11.20;8.77;;;;;;;19.54;90.78;98861.59;4997832;28;20211;-87
2022/07/10 01:58:38;;;;;;;11.10;8.57;;;;;;;19.40;91.65;98846.22;5014578;28;20167;-87
2022/07/10 02:01:05;;;;;;;12.03;9.07;;;;;;;19.03;91.63;98799.97;5015907;28;20173;-87
2022/07/10 02:06:14;;;;;;;10.47;9.37;;;;;;;17.62;91.52;98562.31;5015271;28;20170;-86
2022/07/10 02:08:40;;;;;;;14.67;8.67;;;;;;;17.33;90.59;98492.22;5015290;28;20171;-86
2022/07/10 02:11:05;;;;;;;10.30;9.00;;;;;;;17.65;90.71;98556.34;5014604;28;20159;-86
2022/07/10 02:13:31;;;;;;;9.70;8.70;;;;;;;17.25;90.95;98516.13;5014652;28;20226;-86
2022/07/10 02:15:58;;;;;;;11.13;8.77;;;;;;;18.21;89.84;98630.69;5014451;28;20241;-87
2022/07/10 02:18:24;;;;;;;11.17;9.37;;;;;;;16.50;91.37;98385.44;4997943;28;20170;-83
2022/07/10 02:20:50;;;;;;;11.13;9.03;;;;;;;18.70;92.31;98760.66;5016984;28;20154;-86
2022/07/10 02:23:16;;;;;;;11.17;8.30;;;;;;;17.69;92.90;98594.72;5031640;28;20163;-84
2022/07/10 02:25:41;;;;;;;11.20;8.70;;;;;;;16.47;93.35;98407.56;5031412;28;20391;-84
2022/07/10 02:28:08;;;;;;;12.77;9.40;;;;;;;17.10;93.53;98522.88;5018839;28;20159;-85
2022/07/10 02:30:34;;;;;;;10.60;8.73;;;;;;;18.99;93.90;98847.88;5015427;28;20167;-85
2022/07/10 02:32:59;;;;;;;10.67;9.37;;;;;;;17.55;94.57;98606.63;4997974;28;20159;-85
2022/07/10 02:35:25;;;;;;;10.67;8.80;;;;;;;18.33;93.10;98728.06;5015862;28;20191;-85
2022/07/10 02:37:50;;;;;;;10.63;8.93;;;;;;;18.26;92.99;98727.22;5015534;28;20166;-86
2022/07/10 02:40:15;;;;;;;12.13;9.00;;;;;;;17.21;92.42;98552.75;4997386;28;20162;-86
2022/07/10 02:42:41;;;;;;;11.00;8.90;;;;;;;17.06;91.95;98554.41;5014716;28;20159;-86
2022/07/10 02:45:07;;;;;;;10.70;8.87;;;;;;;18.94;92.04;98844.44;5014909;28;20159;-86
2022/07/10 02:47:33;;;;;;;11.37;8.40;;;;;;;17.69;92.03;98643.38;4996065;28;20189;-86
2022/07/10 02:49:58;;;;;;;12.37;9.30;;;;;;;18.73;92.00;98813.63;5014279;28;20616;-86
2022/07/10 02:52:24;;;;;;;11.00;9.27;;;;;;;17.49;91.60;98610.84;5014494;28;20155;-86
2022/07/10 02:54:50;;;;;;;10.97;8.97;;;;;;;16.91;92.70;98525.38;5014278;28;20190;-86
2022/07/10 02:57:16;;;;;;;12.10;8.47;;;;;;;16.31;91.67;98404.09;5014214;28;20165;-86
2022/07/10 02:59:41;;;;;;;10.67;9.23;;;;;;;16.08;92.00;98392.03;5015225;28;20163;-85
2022/07/10 03:02:07;;;;;;;12.33;9.30;;;;;;;16.06;92.67;98411.59;5016683;28;20192;-85
2022/07/10 03:04:33;;;;;;;11.03;9.10;;;;;;;15.90;93.16;98392.81;5014157;28;20230;-85
2022/07/10 03:06:58;;;;;;;11.43;9.40;;;;;;;15.72;93.96;98382.44;4996151;28;20178;-85
2022/07/10 03:09:25;;;;;;;11.33;9.20;;;;;;;16.48;93.65;98491.88;5014198;28;20221;-85
2022/07/10 03:11:51;;;;;;;11.90;9.40;;;;;;;18.27;93.57;98792.97;5013542;28;20151;-85
2022/07/10 03:14:17;;;;;;;10.37;9.20;;;;;;;17.24;94.06;98626.94;5013774;28;20221;-85
2022/07/10 03:16:42;;;;;;;12.80;10.03;;;;;;;17.34;93.50;98631.25;5014103;28;20171;-84
2022/07/10 03:19:08;;;;;;;11.03;8.83;;;;;;;16.20;94.01;98453.41;5013692;28;20170;-85
2022/07/10 03:21:33;;;;;;;11.90;9.47;;;;;;;17.90;93.73;98737.34;5013446;28;20246;-85
2022/07/10 03:23:59;;;;;;;11.17;8.93;;;;;;;17.47;94.64;98684.22;5013827;28;20163;-85
2022/07/10 03:26:24;;;;;;;11.83;9.70;;;;;;;16.50;93.74;98499.56;4996190;28;20269;-84
2022/07/10 03:28:49;;;;;;;14.80;10.30;;;;;;;16.64;94.16;98515.88;4996049;28;20177;-86
2022/07/10 03:31:15;;;;;;;12.37;9.93;;;;;;;16.82;94.52;98559.41;5015189;28;20189;-85
2022/07/10 03:33:40;;;;;;;12.37;10.47;;;;;;;17.41;94.75;98639.00;5015689;28;20270;-86
2022/07/10 03:36:06;;;;;;;13.83;11.20;;;;;;;18.02;95.14;98733.97;5016223;28;20199;-85
2022/07/10 03:38:32;;;;;;;12.47;10.03;;;;;;;16.40;95.62;98477.34;5013339;28;20253;-86
2022/07/10 03:40:58;;;;;;;12.23;10.93;;;;;;;17.03;95.28;98553.56;5013515;28;20198;-85
2022/07/10 03:43:24;;;;;;;16.43;11.23;;;;;;;16.87;96.59;98527.03;4995365;28;20175;-85
2022/07/10 03:45:50;;;;;;;16.93;12.07;;;;;;;18.37;96.77;98768.25;5012935;28;20237;-86
2022/07/10 03:48:15;;;;;;;13.93;11.17;;;;;;;16.88;97.39;98541.53;5012934;28;20242;-86
2022/07/10 03:50:41;;;;;;;14.37;11.57;;;;;;;18.10;96.74;98707.50;5012902;28;20266;-86
2022/07/10 03:53:06;;;;;;;17.23;12.13;;;;;;;15.70;96.14;98297.41;5012992;28;20221;-84
2022/07/10 03:55:32;;;;;;;14.80;11.20;;;;;;;16.10;97.10;98390.34;5013332;28;20202;-85
2022/07/10 03:57:59;;;;;;;15.70;11.10;;;;;;;15.65;98.54;98330.53;5013332;28;20218;-86
2022/07/10 04:00:26;;;;;;;13.73;12.13;;;;;;;17.62;100.00;98649.34;5013319;28;20245;-84
2022/07/10 04:03:03;;;;;;;12.93;10.53;;;;;;;18.46;100.00;98787.91;5013182;28;20185;-86
2022/07/10 04:05:29;;;;;;;14.37;12.70;;;;;;;18.09;99.16;98687.88;5025377;28;20142;-87
2022/07/10 04:07:56;;;;;;;13.83;10.77;;;;;;;18.29;98.02;98732.31;5027264;28;20182;-85
2022/07/10 04:10:22;;;;;;;16.63;12.00;;;;;;;17.78;98.18;98668.16;4998788;28;20178;-86
2022/07/10 04:12:48;;;;;;;14.93;11.20;;;;;;;18.27;97.39;98712.66;5012895;28;20568;-85
2022/07/10 04:15:13;;;;;;;14.20;11.70;;;;;;;18.00;98.18;98684.44;5012440;28;20201;-86
2022/07/10 04:17:39;;;;;;;13.17;10.77;;;;;;;18.23;98.85;98713.53;5012588;28;20241;-86
2022/07/10 04:20:05;;;;;;;14.10;11.30;;;;;;;18.59;98.94;98774.28;5013234;28;20608;-86
2022/07/10 04:22:31;;;;;;;15.40;12.30;;;;;;;16.42;97.86;98410.13;5011884;28;20185;-86
2022/07/10 04:24:56;;;;;;;12.70;9.83;;;;;;;18.33;98.04;98734.88;5012319;28;20159;-87
2022/07/10 04:27:22;;;;;;;12.60;11.10;;;;;;;19.18;96.25;98841.88;5012234;28;20680;-86
2022/07/10 04:29:48;;;;;;;13.43;10.70;;;;;;;17.32;94.31;98497.38;5012007;28;20159;-84
2022/07/10 04:32:14;;;;;;;13.73;11.10;;;;;;;16.77;93.82;98409.41;5011941;28;20249;-86
2022/07/10 04:34:39;;;;;;;12.77;10.70;;;;;;;18.58;94.20;98719.59;4994611;28;20220;-86
2022/07/10 04:37:07;;;;;;;13.83;9.90;;;;;;;18.78;93.67;98761.50;5012173;28;20611;-87
2022/07/10 04:39:33;;;;;;;12.67;9.77;;;;;;;16.15;92.40;98291.66;5012214;28;20174;-88
2022/07/10 04:41:59;;;;;;;13.00;10.33;;;;;;;18.15;93.40;98646.91;5012226;28;20316;-87
2022/07/10 04:44:24;;;;;;;12.60;10.90;;;;;;;19.54;92.81;98856.47;4994970;28;20166;-87
2022/07/10 04:46:50;;;;;;;13.77;11.30;;;;;;;18.24;91.42;98618.72;5012521;28;20177;-86
2022/07/10 04:49:15;;;;;;;15.40;10.73;;;;;;;19.46;93.21;98857.31;5015498;28;20170;-89
2022/07/10 04:51:41;;;;;;;15.40;11.80;;;;;;;15.26;91.91;98144.09;4996467;28;20228;-86
2022/07/10 04:54:06;;;;;;;14.27;10.87;;;;;;;15.96;93.07;98289.88;4995260;28;20174;-87
2022/07/10 04:56:32;;;;;;;13.83;11.00;;;;;;;15.11;93.07;98121.06;5012434;28;20195;-86
2022/07/10 04:58:57;;;;;;;12.70;10.13;;;;;;;15.70;94.01;98229.38;4998262;28;20182;-87
2022/07/10 05:01:23;;;;;;;13.73;11.63;;;;;;;19.52;93.76;98858.19;5019978;28;20171;-85
2022/07/10 05:03:51;;;;;;;12.93;10.37;;;;;;;19.36;94.55;98862.44;4999148;28;20269;-88
2022/07/10 05:06:17;;;;;;;14.50;11.10;;;;;;;18.00;94.19;98616.13;5018154;28;20620;-86
2022/07/10 05:08:46;;;;;;;16.00;12.17;;;;;;;17.87;92.82;98565.75;5020478;28;20163;-87
2022/07/10 05:11:11;;;;;;;13.37;11.77;;;;;;;18.97;91.47;98718.75;5000864;28;20202;-88
2022/07/10 05:13:37;;;;;;;12.60;10.07;;;;;;;17.86;89.91;98504.28;5017099;28;20167;-88
2022/07/10 05:16:04;;;;;;;13.07;11.67;;;;;;;20.14;90.74;98868.34;5009218;28;20202;-88
2022/07/10 05:18:30;;;;;;;14.67;10.77;;;;;;;16.33;89.98;98235.53;5008218;28;20262;-89
2022/07/10 05:20:56;;;;;;;12.87;10.37;;;;;;;16.80;89.92;98285.03;5025823;28;20174;-89
2022/07/10 05:23:22;;;;;;;17.03;12.27;;;;;;;20.51;89.89;98869.97;5027109;28;20163;-89
2022/07/10 05:25:48;;;;;;;12.63;11.07;;;;;;;20.67;87.78;98898.16;5022727;28;20245;-89
2022/07/10 05:28:14;;;;;;;11.40;9.73;;;;;;;17.14;88.52;98291.00;5003803;28;20182;-89
2022/07/10 05:30:43;;;;;;;14.73;11.90;;;;;;;18.73;87.55;98545.22;5025818;28;20163;-88
2022/07/10 05:33:08;;;;;;;13.67;11.30;;;;;;;18.74;87.41;98540.94;5009395;28;20340;-87
2022/07/10 05:35:34;;;;;;;13.97;11.63;;;;;;;17.69;87.76;98372.03;5025480;28;20664;-88
2022/07/10 05:38:00;;;;;;;13.50;11.63;;;;;;;21.13;87.25;98884.19;5025160;28;20165;-87
2022/07/10 05:40:25;;;;;;;15.03;11.93;;;;;;;18.24;84.96;98359.94;5025892;28;20198;-87
2022/07/10 05:42:53;;;;;;;13.97;10.90;;;;;;;21.06;86.17;98869.63;5023414;28;20167;-88
2022/07/10 05:45:19;;;;;;;13.07;10.97;;;;;;;19.50;84.13;98561.22;5004624;28;20178;-89
2022/07/10 05:47:44;;;;;;;12.13;10.83;;;;;;;21.58;82.59;98829.75;5018064;28;20159;-89
2022/07/10 05:50:11;;;;;;;12.70;11.30;;;;;;;19.23;83.58;98506.56;4998588;28;20170;-90
2022/07/10 05:52:37;;;;;;;12.93;11.67;;;;;;;20.29;83.91;98654.97;5017019;28;20229;-90
2022/07/10 05:55:03;;;;;;;12.67;11.03;;;;;;;21.65;83.47;98872.63;4999682;28;20194;-89
2022/07/10 05:57:31;;;;;;;12.73;10.80;;;;;;;21.33;84.01;98853.16;5000204;28;20530;-88
2022/07/10 05:59:56;;;;;;;11.23;9.50;;;;;;;19.36;84.08;98522.75;5016658;28;20171;-89
2022/07/10 06:02:22;;;;;;;12.87;10.97;;;;;;;20.43;82.36;98634.28;5000582;28;20268;-88
2022/07/10 06:04:47;;;;;;;13.10;10.83;;;;;;;20.58;80.90;98642.72;5000795;28;20222;-87
2022/07/10 06:07:13;;;;;;;12.30;11.03;;;;;;;22.04;80.56;98888.59;5020759;28;20178;-87
2022/07/10 06:09:38;;;;;;;13.53;11.10;;;;;;;20.49;81.63;98663.34;5020331;28;20163;-86
2022/07/10 06:12:04;;;;;;;14.07;11.00;;;;;;;19.25;82.32;98452.66;5017109;28;20166;-88
2022/07/10 06:14:29;;;;;;;11.33;10.13;;;;;;;19.31;81.17;98453.47;5024424;28;20159;-89
2022/07/10 06:16:58;;;;;;;14.03;11.33;;;;;;;21.75;82.19;98863.09;5011360;28;20166;-88
2022/07/10 06:19:26;;;;;;;12.33;11.07;;;;;;;21.46;83.62;98862.47;5007837;28;20160;-88
2022/07/10 06:24:38;;;;;;;15.13;10.50;;;;;;;20.25;80.29;98521.31;5037305;28;20182;-88
2022/07/10 06:27:05;;;;;;;16.57;10.70;;;;;;;18.74;80.19;98320.44;5030669;28;20163;-88
2022/07/10 06:29:30;;;;;;;15.83;10.97;;;;;;;19.83;79.84;98497.63;5030934;28;20564;-88
2022/07/10 06:31:56;;;;;;;11.50;10.27;;;;;;;18.21;78.99;98182.34;5007919;28;20610;-89
2022/07/10 06:34:24;;;;;;;12.13;10.63;;;;;;;20.17;77.09;98461.38;5026442;28;20163;-88
2022/07/10 06:36:51;;;;;;;12.87;11.00;;;;;;;20.89;78.91;98632.16;5004333;28;20178;-88
2022/07/10 06:39:17;;;;;;;16.80;10.40;;;;;;;19.13;78.18;98303.91;5023452;28;20163;-88
2022/07/10 06:41:42;;;;;;;13.33;10.73;;;;;;;20.34;77.63;98483.53;5023155;28;20188;-88
2022/07/10 06:44:08;;;;;;;11.80;10.50;;;;;;;22.32;79.00;98879.69;5002594;28;20257;-88
2022/07/10 06:46:33;;;;;;;12.90;10.80;;;;;;;22.57;77.91;98886.25;5018547;28;20198;-88
2022/07/10 06:49:00;;;;;;;11.67;10.23;;;;;;;20.01;78.13;98468.38;5008948;28;20182;-88
2022/07/10 06:51:28;;;;;;;13.10;10.33;;;;;;;19.29;77.55;98311.47;5006042;28;20190;-89
2022/07/10 06:54:18;;;;;;;11.73;10.53;;;;;;;18.76;76.86;98193.09;5012868;28;20167;-87
2022/07/10 06:56:44;;;;;;;13.03;10.40;;;;;;;19.75;76.37;98344.47;5016974;28;20650;-86
2022/07/10 06:59:09;;;;;;;12.23;10.93;;;;;;;20.25;75.47;98398.78;5026852;28;20182;-87
2022/07/10 07:01:34;;;;;;;13.30;10.10;;;;;;;19.84;76.00;98322.13;5003814;28;20159;-87
2022/07/10 07:04:00;;;;;;;11.53;10.23;;;;;;;21.23;76.38;98548.59;5021927;28;20301;-88
2022/07/10 07:06:26;;;;;;;11.07;9.90;;;;;;;22.48;73.36;98668.81;5005516;28;20230;-87
2022/07/10 07:08:51;;;;;;;11.47;9.37;;;;;;;20.29;72.31;98266.81;5002089;28;20606;-87
2022/07/10 07:11:16;;;;;;;10.70;9.67;;;;;;;23.02;72.30;98680.00;4998011;28;20267;-87
2022/07/10 07:13:42;;;;;;;14.27;9.73;;;;;;;23.76;68.97;98645.00;4997986;28;20241;-87
2022/07/10 07:16:09;;;;;;;11.13;9.77;;;;;;;22.71;69.45;98512.78;5015585;28;20233;-89
2022/07/10 07:18:37;;;;;;;12.53;10.30;;;;;;;21.86;68.38;98317.50;4997560;28;20167;-88
2022/07/10 07:23:46;;;;;;;11.27;10.10;;;;;;;22.86;71.48;98595.06;5020686;28;20177;-88
2022/07/10 07:26:12;;;;;;;11.33;9.70;;;;;;;22.63;70.90;98542.16;5026312;28;20159;-87
2022/07/10 07:28:38;;;;;;;11.57;9.97;;;;;;;22.21;73.44;98559.22;5030319;28;20163;-87
2022/07/10 07:31:04;;;;;;;11.30;10.20;;;;;;;21.56;71.86;98393.56;5024151;28;20198;-86
2022/07/10 07:33:30;;;;;;;12.43;10.97;;;;;;;22.37;69.61;98470.38;5021010;28;20162;-87
2022/07/10 07:35:57;;;;;;;11.80;10.60;;;;;;;22.75;70.93;98637.41;5019539;28;20186;-87
2022/07/10 07:38:22;;;;;;;11.83;10.60;;;;;;;21.56;72.46;98470.84;5026272;28;20645;-88
2022/07/10 07:40:48;;;;;;;11.63;10.53;;;;;;;22.92;71.51;98667.25;5017575;28;20167;-88
2022/07/10 07:43:13;;;;;;;11.40;10.20;;;;;;;22.05;70.31;98519.09;5002064;28;20167;-88
2022/07/10 07:45:39;;;;;;;11.90;10.57;;;;;;;21.10;71.49;98377.13;5002640;28;20548;-84
2022/07/10 07:48:04;;;;;;;13.80;10.87;;;;;;;21.83;71.92;98459.28;5015912;28;20170;-86
2022/07/10 07:50:33;;;;;;;11.23;10.07;;;;;;;23.15;70.36;98598.84;5015510;28;20167;-88
2022/07/10 07:52:59;;;;;;;15.53;11.67;;;;;;;24.28;71.04;98810.28;5017634;28;20616;-88
2022/07/10 07:55:25;;;;;;;11.60;10.50;;;;;;;24.45;70.04;98858.19;5017893;28;20201;-88
2022/07/10 07:57:53;;;;;;;13.80;10.53;;;;;;;22.25;68.94;98473.16;5008878;28;20230;-88
2022/07/10 08:00:22;;;;;;;11.43;10.03;;;;;;;21.88;69.30;98381.91;5001236;28;20182;-87
2022/07/10 08:02:47;;;;;;;10.67;9.67;;;;;;;23.96;69.04;98707.44;5019452;28;20159;-87
2022/07/10 08:05:13;;;;;;;11.87;10.57;;;;;;;23.50;68.80;98547.31;5018287;28;20642;-87
2022/07/10 08:07:40;;;;;;;14.60;11.33;;;;;;;25.34;68.78;98820.81;5019588;28;20170;-86
2022/07/10 08:10:09;;;;;;;11.70;10.27;;;;;;;23.37;63.92;98359.88;5019004;28;20317;-86
2022/07/10 08:12:34;;;;;;;11.48;9.85;;;;;;;24.96;63.57;98666.34;5017787;28;20168;-86
2022/07/10 08:15:00;;;;;;;12.55;9.75;;;;;;;24.21;63.05;98487.94;5018678;28;20200;-87
2022/07/10 08:17:26;;;;;;;11.18;10.07;;;;;;;23.62;65.97;98518.66;5016074;28;20202;-87
2022/07/10 08:19:52;;;;;;;10.65;9.65;;;;;;;22.75;66.55;98478.28;5016560;28;20170;-85
2022/07/10 08:22:18;;;;;;;21.93;10.63;;;;;;;25.82;66.92;98892.22;5018548;28;20197;-87
2022/07/10 08:24:43;;;;;;;10.65;9.55;;;;;;;22.53;65.36;98300.69;5019866;28;20169;-87
2022/07/10 08:27:09;;;;;;;11.02;9.88;;;;;;;23.72;66.11;98553.72;5017346;28;20231;-87
2022/07/10 08:29:34;;;;;;;11.55;10.35;;;;;;;23.31;65.54;98412.53;5016303;28;20166;-86
2022/07/10 08:32:00;;;;;;;12.68;10.10;;;;;;;23.41;65.16;98478.63;5018740;28;20167;-86
2022/07/10 08:34:27;;;;;;;10.70;9.25;;;;;;;23.41;65.62;98470.00;5002140;28;20176;-88
2022/07/10 08:36:53;;;;;;;11.35;9.95;;;;;;;26.34;64.26;98866.56;5003937;28;20176;-87
2022/07/10 08:39:21;;;;;;;12.10;10.40;;;;;;;25.66;63.77;98707.63;5018275;28;20170;-88
2022/07/10 08:41:49;;;;;;;12.05;9.82;;;;;;;22.83;65.68;98307.78;5034533;28;20166;-89
2022/07/10 08:44:17;;;;;;;11.20;10.00;;;;;;;24.30;65.28;98536.84;5029770;28;20166;-87
2022/07/10 08:46:42;;;;;;;12.27;10.02;;;;;;;23.92;64.01;98427.44;5026722;28;20158;-87
2022/07/10 08:49:15;;;;;;;11.07;10.00;;;;;;;25.02;64.77;98661.88;5023110;28;20194;-88
2022/07/10 08:51:48;;;;;;;12.13;9.98;;;;;;;25.09;63.57;98634.91;5008039;28;20204;-88
2022/07/10 08:54:15;;;;;;;13.57;9.77;;;;;;;24.15;61.64;98413.94;5006462;28;20181;-86
2022/07/10 08:56:41;;;;;;;13.35;10.48;;;;;;;23.66;62.12;98329.00;5005140;28;20322;-87
2022/07/10 08:59:08;;;;;;;12.38;10.38;;;;;;;25.18;62.86;98686.47;5021606;28;20231;-85
2022/07/10 09:01:33;;;;;;;11.93;10.32;;;;;;;23.46;63.95;98432.00;5028439;28;20184;-87
2022/07/10 09:04:00;;;;;;;17.30;11.73;;;;;;;25.02;64.45;98656.69;5009483;28;20296;-88
2022/07/10 09:06:28;;;;;;;12.18;10.88;;;;;;;24.55;64.17;98598.31;5007062;28;20178;-87
2022/07/10 09:08:59;;;;;;;12.43;11.13;;;;;;;26.23;64.47;98880.75;5010261;28;20198;-88
2022/07/10 09:11:28;;;;;;;14.50;11.25;;;;;;;26.29;64.08;98886.63;5009358;28;20172;-87
2022/07/10 09:13:56;;;;;;;11.77;10.57;;;;;;;23.39;64.53;98464.91;5011420;28;20176;-86
2022/07/10 09:16:41;;;;;;;12.48;10.60;;;;;;;23.26;64.66;98442.78;5009553;28;20201;-87
2022/07/10 09:19:24;;;;;;;14.25;11.15;;;;;;;22.94;63.31;98284.31;5001741;28;20178;-87
2022/07/10 09:22:02;;;;;;;13.50;10.52;;;;;;;24.85;63.59;98684.75;5017236;28;20166;-89
2022/07/10 09:24:36;;;;;;;15.20;11.27;;;;;;;25.05;65.21;98710.97;5016953;28;20253;-87
2022/07/10 09:27:04;;;;;;;16.30;11.30;;;;;;;23.55;64.95;98456.78;5018217;28;20169;-87
2022/07/10 09:29:31;;;;;;;14.63;11.90;;;;;;;24.02;65.31;98547.84;4998483;28;20261;-88
2022/07/10 09:32:02;;;;;;;12.52;11.23;;;;;;;23.76;65.23;98529.50;5017001;28;20209;-87
2022/07/10 09:34:47;;;;;;;13.20;11.35;;;;;;;24.53;64.53;98627.72;5002613;28;20204;-87
2022/07/10 09:37:27;;;;;;;12.55;11.25;;;;;;;23.85;64.10;98464.66;5021412;28;20160;-87
2022/07/10 09:40:01;;;;;;;11.68;10.52;;;;;;;25.72;64.37;98787.84;5017459;28;20347;-88
2022/07/10 09:42:36;;;;;;;11.57;10.50;;;;;;;26.30;64.31;98893.53;5016500;28;20529;-88
2022/07/10 09:45:17;;;;;;;12.85;10.73;;;;;;;26.32;64.21;98889.13;4998435;28;20227;-88
2022/07/10 09:47:51;;;;;;;12.90;10.70;;;;;;;26.19;64.00;98887.78;4998162;28;20184;-87
2022/07/10 09:50:31;;;;;;;13.80;12.07;;;;;;;26.06;63.90;98895.91;5002962;28;20201;-88
2022/07/10 09:53:02;;;;;;;12.52;11.32;;;;;;;22.89;62.80;98338.63;5016337;28;20168;-88
2022/07/10 09:55:29;;;;;;;19.23;13.77;;;;;;;22.82;62.96;98321.56;5000527;28;20682;-87
2022/07/10 09:57:57;;;;;;;19.70;15.10;;;;;;;24.73;62.34;98634.97;5015487;28;20162;-87
2022/07/10 10:00:25;;;;;;;17.63;14.07;;;;;;;23.79;62.53;98462.22;5015971;28;20242;-87
2022/07/10 10:02:55;;;;;;;15.68;13.85;;;;;;;25.85;62.93;98793.53;5016284;28;20241;-89
2022/07/10 10:05:26;;;;;;;12.27;11.07;;;;;;;24.48;64.22;98629.53;5015935;28;20166;-88
2022/07/10 10:07:51;;;;;;;12.00;10.70;;;;;;;24.15;64.75;98557.91;5015479;28;20241;-87
2022/07/10 10:10:18;;;;;;;12.02;10.50;;;;;;;23.54;65.29;98468.84;5015833;28;20233;-87
2022/07/10 10:12:51;;;;;;;11.63;10.43;;;;;;;23.53;64.94;98446.50;5015360;28;20172;-87
2022/07/10 10:15:17;;;;;;;11.70;9.88;;;;;;;23.32;63.34;98334.13;5016416;28;20201;-88
2022/07/10 10:17:45;;;;;;;12.48;10.80;;;;;;;25.13;62.71;98615.78;4997834;28;20191;-84
2022/07/10 10:23:00;;;;;;;15.27;11.30;;;;;;;26.13;60.77;98654.41;5020143;28;20194;-86
2022/07/10 10:25:32;;;;;;;11.10;9.93;;;;;;;27.39;60.84;98887.63;5005011;28;20189;-86
2022/07/10 10:28:04;;;;;;;12.48;10.63;;;;;;;24.96;59.99;98373.69;5018813;28;20171;-87
2022/07/10 10:30:30;;;;;;;11.57;10.38;;;;;;;27.69;58.57;98737.53;5016225;28;20314;-86
2022/07/10 10:32:55;;;;;;;10.52;8.98;;;;;;;27.33;56.59;98635.66;5016611;28;20174;-87
2022/07/10 10:35:46;;;;;;;10.02;8.90;;;;;;;29.39;53.53;98882.19;5026287;28;20187;-87
2022/07/10 10:38:22;;;;;;;9.02;8.23;;;;;;;29.52;52.24;98889.44;5021084;28;20693;-90
2022/07/10 10:40:48;;;;;;;10.10;8.88;;;;;;;29.16;53.83;98876.09;5027516;28;20169;-90
2022/07/10 10:43:22;;;;;;;9.98;8.90;;;;;;;29.58;52.56;98817.88;5021471;28;20272;-89
2022/07/10 10:45:48;;;;;;;8.68;7.88;;;;;;;29.37;52.09;98879.59;5021604;28;20149;-85
2022/07/10 10:48:16;;;;;;;10.25;8.23;;;;;;;28.65;52.44;98766.91;5004721;28;20177;-86
2022/07/10 10:50:52;;;;;;;8.82;7.93;;;;;;;28.61;50.74;98774.88;5001976;28;20731;-87
2022/07/10 10:53:22;;;;;;;10.18;7.82;;;;;;;28.16;49.91;98694.16;5029832;28;20261;-87
2022/07/10 10:56:00;;;;;;;8.88;7.97;;;;;;;29.54;49.69;98869.34;5021173;28;20260;-86
2022/07/10 10:58:38;;;;;;;8.75;7.95;;;;;;;28.03;48.64;98626.13;5009837;28;20246;-86
2022/07/10 11:01:28;;;;;;;9.18;7.80;;;;;;;29.74;48.59;98856.31;5028884;28;20277;-87
2022/07/10 11:04:17;;;;;;;8.10;7.40;;;;;;;30.03;48.15;98841.16;4929776;29;20244;-86
2022/07/10 11:06:44;;;;;;;8.40;7.60;;;;;;;29.41;49.35;98857.72;4938850;29;20256;-85
2022/07/10 11:09:27;;;;;;;7.70;7.00;;;;;;;29.44;48.38;98844.56;4921835;29;20236;-85
2022/07/10 11:12:10;;;;;;;7.80;7.03;;;;;;;29.56;47.67;98841.41;4921140;29;20185;-85
2022/07/10 11:14:37;;;;;;;8.30;7.50;;;;;;;28.02;49.18;98743.25;4922049;29;20239;-86
2022/07/10 11:17:04;;;;;;;8.02;7.22;;;;;;;29.29;48.50;98846.91;4936435;29;20602;-86
2022/07/10 11:19:31;;;;;;;8.07;7.38;;;;;;;27.89;47.67;98617.97;4934506;29;20175;-85
2022/07/10 11:22:21;;;;;;;8.25;7.45;;;;;;;28.91;47.84;98827.56;4934784;29;20283;-89
2022/07/10 11:24:56;;;;;;;7.90;6.70;;;;;;;29.29;48.04;98832.13;4934368;29;20180;-87
2022/07/10 11:27:36;;;;;;;9.43;6.93;;;;;;;29.41;48.43;98825.56;4935486;29;20207;-87
2022/07/10 11:30:02;;;;;;;7.88;7.05;;;;;;;28.37;48.99;98750.66;4935057;29;20180;-87
2022/07/10 11:32:29;;;;;;;8.00;7.20;;;;;;;28.29;49.19;98830.81;4932918;29;20188;-84
2022/07/10 11:34:55;;;;;;;7.70;7.10;;;;;;;26.13;49.47;98477.94;4933961;29;20231;-88